createdAt,value
2023-03-28T00:01:08.340Z,100.00
2023-03-28T00:03:40.172Z,100.00
2023-03-28T00:06:11.224Z,100.00
2023-03-28T00:08:40.697Z,100.00
2023-03-28T00:11:12.861Z,100.00
2023-03-28T00:13:41.691Z,100.00
2023-03-28T00:16:13.213Z,100.00
2023-03-28T00:18:42.825Z,100.00
2023-03-28T00:21:23.819Z,100.00
2023-03-28T00:23:53.566Z,100.00
2023-03-28T00:26:27.010Z,100.00
2023-03-28T00:28:56.074Z,100.00
2023-03-28T00:31:25.449Z,100.00
2023-03-28T00:33:54.541Z,100.00
2023-03-28T00:36:26.814Z,99.85
2023-03-28T00:38:55.363Z,98.50
2023-03-28T00:41:26.971Z,94.62
2023-03-28T00:43:57.075Z,93.10
2023-03-28T00:46:29.928Z,91.15
2023-03-28T00:49:03.555Z,92.44
2023-03-28T00:51:35.692Z,92.20
2023-03-28T00:54:05.257Z,93.01
2023-03-28T00:56:39.432Z,93.59
2023-03-28T00:59:11.031Z,92.81
2023-03-28T01:01:39.649Z,93.40
2023-03-28T01:04:10.479Z,96.06
2023-03-28T01:06:42.567Z,96.59
2023-03-28T01:09:11.396Z,92.17
2023-03-28T01:11:42.382Z,95.05
2023-03-28T01:14:13.546Z,97.13
2023-03-28T01:16:43.143Z,100.00
2023-03-28T01:19:22.159Z,100.00
2023-03-28T01:22:27.473Z,100.00
2023-03-28T01:25:28.902Z,100.00
2023-03-28T01:28:04.938Z,98.77
2023-03-28T01:31:08.203Z,100.00
2023-03-28T01:34:11.687Z,97.89
2023-03-28T01:37:16.186Z,99.48
2023-03-28T01:40:06.355Z,100.00
2023-03-28T01:42:46.539Z,100.00
2023-03-28T01:45:21.019Z,100.00
2023-03-28T01:47:56.811Z,100.00
2023-03-28T01:50:31.844Z,100.00
2023-03-28T01:53:05.789Z,100.00
2023-03-28T01:55:41.917Z,100.00
2023-03-28T01:58:17.412Z,100.00
2023-03-28T02:00:51.170Z,100.00
2023-03-28T02:03:25.220Z,100.00
2023-03-28T02:05:56.342Z,100.00
2023-03-28T02:08:29.967Z,100.00
2023-03-28T02:11:00.005Z,100.00
2023-03-28T02:13:34.908Z,97.70
2023-03-28T02:16:06.386Z,90.92
2023-03-28T02:18:38.242Z,86.80
2023-03-28T02:21:10.102Z,86.12
2023-03-28T02:23:42.714Z,83.51
2023-03-28T02:26:12.462Z,84.91
2023-03-28T02:28:43.265Z,85.21
2023-03-28T02:31:11.987Z,85.19
2023-03-28T02:33:42.522Z,89.50
2023-03-28T02:36:29.271Z,81.88
2023-03-28T02:39:11.117Z,86.00
2023-03-28T02:41:53.492Z,88.43
2023-03-28T02:44:38.518Z,80.32
2023-03-28T02:47:18.055Z,79.13
2023-03-28T02:49:58.494Z,79.69
2023-03-28T02:52:35.439Z,78.02
2023-03-28T02:55:16.278Z,77.85
2023-03-28T02:57:49.691Z,77.33
2023-03-28T03:00:21.103Z,78.25
2023-03-28T03:02:51.780Z,77.26
2023-03-28T03:05:22.163Z,77.09
2023-03-28T03:07:52.265Z,78.76
2023-03-28T03:10:22.226Z,77.77
2023-03-28T03:12:50.623Z,79.37
2023-03-28T03:15:19.039Z,77.12
2023-03-28T03:17:47.745Z,76.80
2023-03-28T03:20:16.062Z,77.15
2023-03-28T03:22:44.328Z,75.39
2023-03-28T03:25:14.722Z,75.72
2023-03-28T03:27:44.553Z,76.27
2023-03-28T03:30:13.791Z,77.49
2023-03-28T03:32:44.281Z,77.92
2023-03-28T03:35:13.042Z,74.90
2023-03-28T03:37:41.646Z,75.31
2023-03-28T03:40:11.114Z,75.42
2023-03-28T03:42:40.091Z,74.84
2023-03-28T03:45:11.356Z,73.75
2023-03-28T03:47:39.660Z,73.20
2023-03-28T03:50:09.598Z,71.52
2023-03-28T03:52:38.797Z,71.98
2023-03-28T03:55:07.797Z,70.30
2023-03-28T03:57:36.222Z,71.41
2023-03-28T04:00:11.717Z,71.18
2023-03-28T04:02:41.780Z,69.05
2023-03-28T04:05:10.403Z,72.11
2023-03-28T04:07:39.314Z,71.31
2023-03-28T04:10:08.477Z,71.81
2023-03-28T04:12:36.787Z,70.92
2023-03-28T04:15:06.350Z,71.02
2023-03-28T04:17:35.102Z,70.91
2023-03-28T04:20:11.672Z,69.62
2023-03-28T04:22:45.407Z,70.12
2023-03-28T04:25:15.116Z,69.54
2023-03-28T04:27:47.346Z,70.65
2023-03-28T04:30:18.025Z,70.43
2023-03-28T04:32:49.779Z,70.27
2023-03-28T04:35:19.680Z,73.08
2023-03-28T04:37:49.480Z,68.91
2023-03-28T04:40:18.074Z,70.44
2023-03-28T04:42:46.926Z,69.65
2023-03-28T04:45:17.874Z,68.74
2023-03-28T04:47:46.574Z,70.00
2023-03-28T04:50:14.948Z,69.72
2023-03-28T04:52:44.688Z,68.38
2023-03-28T04:55:13.053Z,70.70
2023-03-28T04:57:41.332Z,69.78
2023-03-28T05:00:12.981Z,78.76
2023-03-28T05:02:41.371Z,74.95
2023-03-28T05:05:10.303Z,71.96
2023-03-28T05:07:38.564Z,71.84
2023-03-28T05:10:09.728Z,70.78
2023-03-28T05:12:38.788Z,77.00
2023-03-28T05:15:08.112Z,70.08
2023-03-28T05:17:36.370Z,70.90
2023-03-28T05:20:08.589Z,67.06
2023-03-28T05:22:37.225Z,70.64
2023-03-28T05:25:08.482Z,67.62
2023-03-28T05:27:38.365Z,69.47
2023-03-28T05:30:08.248Z,67.58
2023-03-28T05:32:37.764Z,67.33
2023-03-28T05:35:07.588Z,66.54
2023-03-28T05:37:37.531Z,69.47
2023-03-28T05:40:11.333Z,72.88
2023-03-28T05:42:40.097Z,63.49
2023-03-28T05:45:10.305Z,67.93
2023-03-28T05:47:38.801Z,61.80
2023-03-28T05:50:08.616Z,63.92
2023-03-28T05:52:36.907Z,62.35
2023-03-28T05:55:05.673Z,61.15
2023-03-28T05:57:35.608Z,60.25
2023-03-28T06:00:13.835Z,59.71
2023-03-28T06:02:43.422Z,58.86
2023-03-28T06:05:13.904Z,56.88
2023-03-28T06:07:43.183Z,55.29
2023-03-28T06:10:13.715Z,55.28
2023-03-28T06:12:43.471Z,53.92
2023-03-28T06:15:12.925Z,53.95
2023-03-28T06:17:41.380Z,53.29
2023-03-28T06:20:11.084Z,52.21
2023-03-28T06:22:39.469Z,52.05
2023-03-28T06:25:08.645Z,50.17
2023-03-28T06:27:36.996Z,52.74
2023-03-28T06:30:08.214Z,48.89
2023-03-28T06:32:36.877Z,49.11
2023-03-28T06:35:05.562Z,50.70
2023-03-28T06:37:33.874Z,49.64
2023-03-28T06:40:02.228Z,48.25
2023-03-28T06:42:30.624Z,47.99
2023-03-28T06:44:58.855Z,48.20
2023-03-28T06:47:28.631Z,46.67
2023-03-28T06:49:56.957Z,44.75
2023-03-28T06:52:25.313Z,44.36
2023-03-28T06:54:53.587Z,42.88
2023-03-28T06:57:22.154Z,44.28
2023-03-28T06:59:51.729Z,42.29
2023-03-28T07:02:20.120Z,40.82
2023-03-28T07:04:50.250Z,43.22
2023-03-28T07:07:18.582Z,41.52
2023-03-28T07:09:48.915Z,42.16
2023-03-28T07:12:17.285Z,44.23
2023-03-28T07:14:47.057Z,46.33
2023-03-28T07:17:15.644Z,41.80
2023-03-28T07:19:45.525Z,43.03
2023-03-28T07:22:15.214Z,43.22
2023-03-28T07:24:43.581Z,42.63
2023-03-28T07:27:16.237Z,42.13
2023-03-28T07:29:45.418Z,40.08
2023-03-28T07:32:14.020Z,42.42
2023-03-28T07:34:42.259Z,39.35
2023-03-28T07:37:11.349Z,40.24
2023-03-28T07:39:43.908Z,38.99
2023-03-28T07:42:13.184Z,36.92
2023-03-28T07:44:42.505Z,46.15
2023-03-28T07:47:11.703Z,37.56
2023-03-28T07:49:41.232Z,37.03
2023-03-28T07:52:09.837Z,37.73
2023-03-28T07:54:38.114Z,36.80
2023-03-28T07:57:07.919Z,38.33
2023-03-28T07:59:36.218Z,38.25
2023-03-28T08:02:04.628Z,35.93
2023-03-28T08:04:33.433Z,39.13
2023-03-28T08:07:02.442Z,37.02
2023-03-28T08:09:30.858Z,36.84
2023-03-28T08:11:59.114Z,35.85
2023-03-28T08:14:28.895Z,40.19
2023-03-28T08:16:57.169Z,39.46
2023-03-28T08:19:25.541Z,42.89
2023-03-28T08:21:53.759Z,41.31
2023-03-28T08:24:32.943Z,37.17
2023-03-28T08:27:03.920Z,35.39
2023-03-28T08:29:33.774Z,33.92
2023-03-28T08:32:02.122Z,33.38
2023-03-28T08:34:30.886Z,32.07
2023-03-28T08:36:59.997Z,35.92
2023-03-28T08:39:28.348Z,34.46
2023-03-28T08:42:24.220Z,31.58
2023-03-28T08:45:13.172Z,33.96
2023-03-28T08:47:47.707Z,34.70
2023-03-28T08:50:21.123Z,34.36
2023-03-28T08:52:49.477Z,37.16
2023-03-28T08:55:29.388Z,33.25
2023-03-28T08:57:59.029Z,35.97
2023-03-28T09:00:31.462Z,35.17
2023-03-28T09:03:01.345Z,33.20
2023-03-28T09:05:40.206Z,33.36
2023-03-28T09:08:27.945Z,33.32
2023-03-28T09:11:03.005Z,33.39
2023-03-28T09:13:39.519Z,36.89
2023-03-28T09:16:22.632Z,32.99
2023-03-28T09:19:12.746Z,36.17
2023-03-28T09:22:05.035Z,34.26
2023-03-28T09:24:53.266Z,34.27
2023-03-28T09:27:29.069Z,33.84
2023-03-28T09:30:05.391Z,33.94
2023-03-28T09:32:38.508Z,32.90
2023-03-28T09:35:17.596Z,35.19
2023-03-28T09:37:48.796Z,32.03
2023-03-28T09:40:24.114Z,31.96
2023-03-28T09:42:59.530Z,32.08
2023-03-28T09:45:41.003Z,31.32
2023-03-28T09:48:21.829Z,29.60
2023-03-28T09:50:50.334Z,31.81
2023-03-28T09:53:27.658Z,33.04
2023-03-28T09:56:04.341Z,29.34
2023-03-28T09:58:51.916Z,29.73
2023-03-28T10:01:33.094Z,28.68
2023-03-28T10:04:03.384Z,27.84
2023-03-28T10:06:33.455Z,29.65
2023-03-28T10:09:17.748Z,32.39
2023-03-28T10:11:49.130Z,26.92
2023-03-28T10:14:35.766Z,28.27
2023-03-28T10:17:07.157Z,33.12
2023-03-28T10:19:41.226Z,33.32
2023-03-28T10:22:14.243Z,28.55
2023-03-28T10:24:43.298Z,28.73
2023-03-28T10:27:18.945Z,27.71
2023-03-28T10:29:48.366Z,29.38
2023-03-28T10:32:26.317Z,26.87
2023-03-28T10:35:04.334Z,26.83
2023-03-28T10:37:34.780Z,27.63
2023-03-28T10:40:06.989Z,26.89
2023-03-28T10:42:43.104Z,29.55
2023-03-28T10:45:23.931Z,28.18
2023-03-28T10:47:54.855Z,29.87
2023-03-28T10:50:39.384Z,28.41
2023-03-28T10:53:25.830Z,29.48
2023-03-28T10:56:05.151Z,29.88
2023-03-28T10:58:37.698Z,29.70
2023-03-28T11:01:11.490Z,28.61
2023-03-28T11:03:55.077Z,31.51
2023-03-28T11:06:30.720Z,31.95
2023-03-28T11:09:09.159Z,31.45
2023-03-28T11:12:01.859Z,39.49
2023-03-28T11:14:51.982Z,31.62
2023-03-28T11:17:30.011Z,32.49
2023-03-28T11:20:23.847Z,41.80
2023-03-28T11:23:11.719Z,31.27
2023-03-28T11:25:47.590Z,42.00
2023-03-28T11:28:24.888Z,31.84
2023-03-28T11:30:57.482Z,32.18
2023-03-28T11:33:31.081Z,31.65
2023-03-28T11:36:02.570Z,31.24
2023-03-28T11:38:36.455Z,33.40
2023-03-28T11:41:12.059Z,29.41
2023-03-28T11:43:46.133Z,31.82
2023-03-28T11:46:19.936Z,32.92
2023-03-28T11:48:54.955Z,29.80
2023-03-28T11:51:29.194Z,32.34
2023-03-28T11:54:03.013Z,43.72
2023-03-28T11:56:43.429Z,30.24
2023-03-28T11:59:16.827Z,32.42
2023-03-28T12:01:50.112Z,31.40
2023-03-28T12:04:22.589Z,31.06
2023-03-28T12:07:07.685Z,32.15
2023-03-28T12:09:47.386Z,35.03
2023-03-28T12:12:20.652Z,30.32
2023-03-28T12:14:56.430Z,31.37
2023-03-28T12:17:30.003Z,32.09
2023-03-28T12:19:58.332Z,31.86
2023-03-28T12:22:34.366Z,31.03
2023-03-28T12:25:13.197Z,41.86
2023-03-28T12:27:51.335Z,31.65
2023-03-28T12:30:26.180Z,36.36
2023-03-28T12:33:03.479Z,31.79
2023-03-28T12:35:39.816Z,29.69
2023-03-28T12:38:19.761Z,31.60
2023-03-28T12:41:00.395Z,33.07
2023-03-28T12:43:37.893Z,32.22
2023-03-28T12:46:09.137Z,31.06
2023-03-28T12:48:42.310Z,32.31
2023-03-28T12:51:17.327Z,34.33
2023-03-28T12:53:47.760Z,31.30
2023-03-28T12:56:17.954Z,31.77
2023-03-28T12:58:49.006Z,34.44
2023-03-28T13:01:43.001Z,33.46
2023-03-28T13:04:26.822Z,29.98
2023-03-28T13:07:05.581Z,39.67
2023-03-28T13:10:03.132Z,31.40
2023-03-28T13:12:50.957Z,31.21
2023-03-28T13:15:33.990Z,31.00
2023-03-28T13:18:32.691Z,31.62
2023-03-28T13:21:04.450Z,30.40
2023-03-28T13:23:36.289Z,30.50
2023-03-28T13:26:06.757Z,29.41
2023-03-28T13:28:43.218Z,30.36
2023-03-28T13:31:33.081Z,28.64
2023-03-28T13:34:04.353Z,33.68
2023-03-28T13:36:34.044Z,33.16
2023-03-28T13:39:25.157Z,28.30
2023-03-28T13:42:01.550Z,29.86
2023-03-28T13:44:37.834Z,28.22
2023-03-28T13:47:07.146Z,29.25
2023-03-28T13:49:45.036Z,28.78
2023-03-28T13:52:17.272Z,27.04
2023-03-28T13:54:54.180Z,28.97
2023-03-28T13:57:26.134Z,27.91
2023-03-28T13:59:58.744Z,28.36
2023-03-28T14:02:38.158Z,35.00
2023-03-28T14:05:15.925Z,28.47
2023-03-28T14:07:44.263Z,26.21
2023-03-28T14:10:23.494Z,33.48
2023-03-28T14:12:54.490Z,31.17
2023-03-28T14:15:27.394Z,34.86
2023-03-28T14:17:58.011Z,28.38
2023-03-28T14:20:27.650Z,27.85
2023-03-28T14:23:00.273Z,29.50
2023-03-28T14:25:33.246Z,28.70
2023-03-28T14:28:09.792Z,39.71
2023-03-28T14:30:43.444Z,30.86
2023-03-28T14:33:22.352Z,29.68
2023-03-28T14:36:01.898Z,29.98
2023-03-28T14:38:33.331Z,29.73
2023-03-28T14:41:13.486Z,30.83
2023-03-28T14:43:42.055Z,28.73
2023-03-28T14:46:12.851Z,31.25
2023-03-28T14:48:44.911Z,29.94
2023-03-28T14:51:15.048Z,28.10
2023-03-28T14:53:47.528Z,28.62
2023-03-28T14:56:19.637Z,29.21
2023-03-28T14:58:50.132Z,28.94
2023-03-28T15:01:23.095Z,29.44
2023-03-28T15:03:57.786Z,31.69
2023-03-28T15:06:29.556Z,31.29
2023-03-28T15:09:00.765Z,29.44
2023-03-28T15:11:32.845Z,29.79
2023-03-28T15:14:05.108Z,28.78
2023-03-28T15:16:39.721Z,30.01
2023-03-28T15:19:17.210Z,32.29
2023-03-28T15:21:53.308Z,30.79
2023-03-28T15:24:22.064Z,29.92
2023-03-28T15:26:54.919Z,31.43
2023-03-28T15:29:26.482Z,31.91
2023-03-28T15:32:04.003Z,31.51
2023-03-28T15:34:34.839Z,34.08
2023-03-28T15:37:05.229Z,33.59
2023-03-28T15:39:35.150Z,30.40
2023-03-28T15:42:34.308Z,31.29
2023-03-28T15:45:23.578Z,32.42
2023-03-28T15:47:55.917Z,31.69
2023-03-28T15:50:28.601Z,31.38
2023-03-28T15:53:01.560Z,31.44
2023-03-28T15:55:29.972Z,34.25
2023-03-28T15:57:59.163Z,32.21
2023-03-28T16:00:42.232Z,33.37
2023-03-28T16:03:34.178Z,30.72
2023-03-28T16:06:30.704Z,31.02
2023-03-28T16:09:16.427Z,31.16
2023-03-28T16:11:45.808Z,32.20
2023-03-28T16:14:17.578Z,31.33
2023-03-28T16:16:46.648Z,35.32
2023-03-28T16:19:20.569Z,30.98
2023-03-28T16:21:49.173Z,29.78
2023-03-28T16:24:17.949Z,30.91
2023-03-28T16:26:46.373Z,32.68
2023-03-28T16:29:14.785Z,30.10
2023-03-28T16:31:43.503Z,32.18
2023-03-28T16:34:11.932Z,31.84
2023-03-28T16:36:41.653Z,30.42
2023-03-28T16:39:10.045Z,32.31
2023-03-28T16:41:38.422Z,32.96
2023-03-28T16:44:07.171Z,33.13
2023-03-28T16:46:35.698Z,42.45
2023-03-28T16:49:04.010Z,32.38
2023-03-28T16:51:32.436Z,37.43
2023-03-28T16:54:02.168Z,34.98
2023-03-28T16:56:30.506Z,32.70
2023-03-28T16:58:58.871Z,33.57
2023-03-28T17:01:27.606Z,35.51
2023-03-28T17:03:56.091Z,35.20
2023-03-28T17:06:25.084Z,39.18
2023-03-28T17:08:54.573Z,32.29
2023-03-28T17:11:24.382Z,35.27
2023-03-28T17:13:54.602Z,35.60
2023-03-28T17:16:23.819Z,33.29
2023-03-28T17:18:53.796Z,49.92
2023-03-28T17:21:22.113Z,34.33
2023-03-28T17:23:51.954Z,32.93
2023-03-28T17:26:20.298Z,35.99
2023-03-28T17:28:51.105Z,34.76
2023-03-28T17:31:21.412Z,33.86
2023-03-28T17:33:50.095Z,35.60
2023-03-28T17:36:21.944Z,34.40
2023-03-28T17:38:51.483Z,36.06
2023-03-28T17:41:20.743Z,34.08
2023-03-28T17:43:50.858Z,33.38
2023-03-28T17:46:20.039Z,34.58
2023-03-28T17:48:48.928Z,34.07
2023-03-28T17:51:18.138Z,34.86
2023-03-28T17:53:47.782Z,33.83
2023-03-28T17:56:17.048Z,34.43
2023-03-28T17:58:46.187Z,35.94
2023-03-28T18:01:18.638Z,33.46
2023-03-28T18:03:47.592Z,32.45
2023-03-28T18:06:16.614Z,32.63
2023-03-28T18:08:45.547Z,32.14
2023-03-28T18:11:17.867Z,32.30
2023-03-28T18:13:46.787Z,36.39
2023-03-28T18:16:18.606Z,39.05
2023-03-28T18:18:47.162Z,32.65
2023-03-28T18:21:15.737Z,35.93
2023-03-28T18:23:44.091Z,33.54
2023-03-28T18:26:12.478Z,34.72
2023-03-28T18:28:41.063Z,35.36
2023-03-28T18:31:11.175Z,35.76
2023-03-28T18:33:43.067Z,41.39
2023-03-28T18:36:12.961Z,37.99
2023-03-28T18:38:42.845Z,38.48
2023-03-28T18:41:12.741Z,34.13
2023-03-28T18:43:43.354Z,36.37
2023-03-28T18:46:15.466Z,40.15
2023-03-28T18:48:45.872Z,38.64
2023-03-28T18:51:14.375Z,37.48
2023-03-28T18:53:43.267Z,38.89
2023-03-28T18:56:13.791Z,33.84
2023-03-28T18:58:42.244Z,35.37
2023-03-28T19:01:11.998Z,37.67
2023-03-28T19:03:42.616Z,49.00
2023-03-28T19:06:13.877Z,38.38
2023-03-28T19:08:42.567Z,36.78
2023-03-28T19:11:13.472Z,36.18
2023-03-28T19:13:42.784Z,34.70
2023-03-28T19:16:13.438Z,35.20
2023-03-28T19:18:43.313Z,35.26
2023-03-28T19:21:13.544Z,35.61
2023-03-28T19:23:41.970Z,35.89
2023-03-28T19:26:13.916Z,34.62
2023-03-28T19:28:43.879Z,34.92
2023-03-28T19:31:14.262Z,35.49
2023-03-28T19:33:43.389Z,35.47
2023-03-28T19:36:13.273Z,34.36
2023-03-28T19:38:41.926Z,34.76
2023-03-28T19:41:17.294Z,36.37
2023-03-28T19:43:45.658Z,35.10
2023-03-28T19:46:19.114Z,35.65
2023-03-28T19:48:47.429Z,35.88
2023-03-28T19:51:17.160Z,35.81
2023-03-28T19:53:45.815Z,37.22
2023-03-28T19:56:14.307Z,36.38
2023-03-28T19:58:42.629Z,36.42
2023-03-28T20:01:10.965Z,35.56
2023-03-28T20:03:39.371Z,37.42
2023-03-28T20:06:10.690Z,37.40
2023-03-28T20:08:41.142Z,38.04
2023-03-28T20:11:09.975Z,37.86
2023-03-28T20:13:38.250Z,38.57
2023-03-28T20:16:08.808Z,39.09
2023-03-28T20:18:37.393Z,38.32
2023-03-28T20:21:08.200Z,39.65
2023-03-28T20:23:36.457Z,39.80
2023-03-28T20:26:18.670Z,40.37
2023-03-28T20:28:49.988Z,40.30
2023-03-28T20:31:19.924Z,41.08
2023-03-28T20:33:48.193Z,39.94
2023-03-28T20:36:16.737Z,39.67
2023-03-28T20:38:44.974Z,39.25
2023-03-28T20:41:16.689Z,39.55
2023-03-28T20:43:47.861Z,38.08
2023-03-28T20:46:19.782Z,39.29
2023-03-28T20:48:53.113Z,38.93
2023-03-28T20:51:23.181Z,39.32
2023-03-28T20:53:54.618Z,39.12
2023-03-28T20:56:25.020Z,39.62
2023-03-28T20:58:53.647Z,39.03
2023-03-28T21:01:25.527Z,44.74
2023-03-28T21:03:54.818Z,40.75
2023-03-28T21:06:25.272Z,41.42
2023-03-28T21:08:55.651Z,41.00
2023-03-28T21:11:27.853Z,39.58
2023-03-28T21:13:57.597Z,43.10
2023-03-28T21:16:26.588Z,41.00
2023-03-28T21:18:54.864Z,41.73
2023-03-28T21:21:23.634Z,42.60
2023-03-28T21:23:53.250Z,43.72
2023-03-28T21:26:23.109Z,43.83
2023-03-28T21:28:53.647Z,42.16
2023-03-28T21:31:25.056Z,52.05
2023-03-28T21:33:53.922Z,43.72
2023-03-28T21:36:22.562Z,39.34
2023-03-28T21:38:50.928Z,38.27
2023-03-28T21:41:19.543Z,41.45
2023-03-28T21:43:48.861Z,38.58
2023-03-28T21:46:19.736Z,36.20
2023-03-28T21:48:48.516Z,39.52
2023-03-28T21:51:17.798Z,44.60
2023-03-28T21:53:46.468Z,37.69
2023-03-28T21:56:16.551Z,46.37
2023-03-28T21:58:45.122Z,37.25
2023-03-28T22:01:14.884Z,39.02
2023-03-28T22:03:45.797Z,39.33
2023-03-28T22:06:14.604Z,43.09
2023-03-28T22:08:45.312Z,41.80
2023-03-28T22:11:15.142Z,38.47
2023-03-28T22:13:45.073Z,37.74
2023-03-28T22:16:14.362Z,36.64
2023-03-28T22:18:49.922Z,41.94
2023-03-28T22:21:18.832Z,42.44
2023-03-28T22:23:47.906Z,49.09
2023-03-28T22:26:16.535Z,36.56
2023-03-28T22:28:45.146Z,36.80
2023-03-28T22:31:13.440Z,42.08
2023-03-28T22:33:42.013Z,38.17
2023-03-28T22:36:13.675Z,45.63
2023-03-28T22:38:42.012Z,36.50
2023-03-28T22:41:10.324Z,36.47
2023-03-28T22:43:42.784Z,39.40
2023-03-28T22:46:16.430Z,35.29
2023-03-28T22:48:45.267Z,37.12
2023-03-28T22:51:15.916Z,35.56
2023-03-28T22:53:44.197Z,43.79
2023-03-28T22:56:12.595Z,35.79
2023-03-28T22:58:41.158Z,39.80
2023-03-28T23:01:09.474Z,36.81
2023-03-28T23:03:38.312Z,49.45
2023-03-28T23:06:07.247Z,38.88
2023-03-28T23:08:37.559Z,36.67
2023-03-28T23:11:06.348Z,43.38
2023-03-28T23:13:34.600Z,36.95
2023-03-28T23:16:02.960Z,37.70
2023-03-28T23:18:31.817Z,35.18
2023-03-28T23:21:00.913Z,41.81
2023-03-28T23:23:29.692Z,39.43
2023-03-28T23:25:59.453Z,36.89
2023-03-28T23:28:27.723Z,39.16
2023-03-28T23:30:56.250Z,38.71
2023-03-28T23:33:24.617Z,39.66
2023-03-28T23:35:52.962Z,49.66
2023-03-28T23:38:21.311Z,51.76
2023-03-28T23:40:49.822Z,38.64
2023-03-28T23:43:19.610Z,38.16
2023-03-28T23:45:47.884Z,39.50
2023-03-28T23:48:16.450Z,52.30
2023-03-28T23:50:45.178Z,37.98
2023-03-28T23:53:13.600Z,39.12
2023-03-28T23:55:41.923Z,41.47
2023-03-28T23:58:10.191Z,38.58
